sensor_id;sensor_type;location;lat;lon;timestamp;temperature;humidity
19292;DHT22;9779;51.756;7.450;2023-06-10T00:00:37;22.10;1.00
19292;DHT22;9779;51.756;7.450;2023-06-10T00:03:03;22.00;1.00
19292;DHT22;9779;51.756;7.450;2023-06-10T00:05:28;22.00;1.00
19292;DHT22;9779;51.756;7.450;2023-06-10T00:07:57;21.90;1.00
19292;DHT22;9779;51.756;7.450;2023-06-10T00:10:24;21.90;1.00
19292;DHT22;9779;51.756;7.450;2023-06-10T00:12:50;21.90;1.00
19292;DHT22;9779;51.756;7.450;2023-06-10T00:15:17;21.80;1.00
19292;DHT22;9779;51.756;7.450;2023-06-10T00:17:42;21.80;1.00
19292;DHT22;9779;51.756;7.450;2023-06-10T00:20:09;21.70;1.00
19292;DHT22;9779;51.756;7.450;2023-06-10T00:22:37;21.70;1.00
19292;DHT22;9779;51.756;7.450;2023-06-10T00:25:05;21.60;99.90
19292;DHT22;9779;51.756;7.450;2023-06-10T00:27:31;21.60;61.90
19292;DHT22;9779;51.756;7.450;2023-06-10T00:30:02;21.50;99.90
19292;DHT22;9779;51.756;7.450;2023-06-10T00:32:30;21.50;36.40
19292;DHT22;9779;51.756;7.450;2023-06-10T00:34:56;21.50;1.00
19292;DHT22;9779;51.756;7.450;2023-06-10T00:37:21;21.40;1.00
19292;DHT22;9779;51.756;7.450;2023-06-10T00:39:47;21.40;1.00
19292;DHT22;9779;51.756;7.450;2023-06-10T00:42:13;21.40;80.80
19292;DHT22;9779;51.756;7.450;2023-06-10T00:44:38;21.30;99.90
19292;DHT22;9779;51.756;7.450;2023-06-10T00:47:05;21.30;99.90
19292;DHT22;9779;51.756;7.450;2023-06-10T00:49:31;21.30;66.70
19292;DHT22;9779;51.756;7.450;2023-06-10T00:51:57;21.20;55.00
19292;DHT22;9779;51.756;7.450;2023-06-10T00:54:23;21.20;1.00
19292;DHT22;9779;51.756;7.450;2023-06-10T00:56:49;21.20;2.30
19292;DHT22;9779;51.756;7.450;2023-06-10T00:59:15;21.10;10.30
19292;DHT22;9779;51.756;7.450;2023-06-10T01:01:42;21.00;24.60
19292;DHT22;9779;51.756;7.450;2023-06-10T01:04:08;21.00;99.90
19292;DHT22;9779;51.756;7.450;2023-06-10T01:07:05;21.00;94.30
19292;DHT22;9779;51.756;7.450;2023-06-10T01:10:18;20.90;99.90
19292;DHT22;9779;51.756;7.450;2023-06-10T01:12:55;20.90;99.90
19292;DHT22;9779;51.756;7.450;2023-06-10T01:15:24;20.80;1.00
19292;DHT22;9779;51.756;7.450;2023-06-10T01:18:07;20.80;99.90
19292;DHT22;9779;51.756;7.450;2023-06-10T01:20:41;20.70;1.00
19292;DHT22;9779;51.756;7.450;2023-06-10T01:23:09;20.70;99.90
19292;DHT22;9779;51.756;7.450;2023-06-10T01:25:38;20.60;99.90
19292;DHT22;9779;51.756;7.450;2023-06-10T01:31:13;20.60;99.90
19292;DHT22;9779;51.756;7.450;2023-06-10T01:33:48;20.50;99.90
19292;DHT22;9779;51.756;7.450;2023-06-10T01:36:16;20.50;99.90
19292;DHT22;9779;51.756;7.450;2023-06-10T01:38:45;20.40;1.00
19292;DHT22;9779;51.756;7.450;2023-06-10T01:41:16;20.40;1.00
19292;DHT22;9779;51.756;7.450;2023-06-10T01:43:45;20.40;1.00
19292;DHT22;9779;51.756;7.450;2023-06-10T01:46:11;20.40;1.00
19292;DHT22;9779;51.756;7.450;2023-06-10T01:48:38;20.30;1.00
19292;DHT22;9779;51.756;7.450;2023-06-10T01:51:04;20.30;1.00
19292;DHT22;9779;51.756;7.450;2023-06-10T01:53:29;20.30;1.00
19292;DHT22;9779;51.756;7.450;2023-06-10T01:55:55;20.20;1.00
19292;DHT22;9779;51.756;7.450;2023-06-10T01:58:21;20.20;1.00
19292;DHT22;9779;51.756;7.450;2023-06-10T02:00:47;20.10;1.00
19292;DHT22;9779;51.756;7.450;2023-06-10T02:03:12;20.10;1.00
19292;DHT22;9779;51.756;7.450;2023-06-10T02:05:38;20.10;1.00
19292;DHT22;9779;51.756;7.450;2023-06-10T02:08:04;20.00;1.00
19292;DHT22;9779;51.756;7.450;2023-06-10T02:10:30;20.00;1.00
19292;DHT22;9779;51.756;7.450;2023-06-10T02:12:55;20.00;1.00
19292;DHT22;9779;51.756;7.450;2023-06-10T02:15:21;19.90;6.40
19292;DHT22;9779;51.756;7.450;2023-06-10T02:17:46;19.90;81.60
19292;DHT22;9779;51.756;7.450;2023-06-10T02:20:14;19.90;99.90
19292;DHT22;9779;51.756;7.450;2023-06-10T02:22:40;19.80;99.90
19292;DHT22;9779;51.756;7.450;2023-06-10T02:25:06;19.80;99.90
19292;DHT22;9779;51.756;7.450;2023-06-10T02:27:31;19.70;1.00
19292;DHT22;9779;51.756;7.450;2023-06-10T02:29:58;19.70;1.00
19292;DHT22;9779;51.756;7.450;2023-06-10T02:32:23;19.70;1.00
19292;DHT22;9779;51.756;7.450;2023-06-10T02:34:49;19.70;1.00
19292;DHT22;9779;51.756;7.450;2023-06-10T02:37:15;19.60;1.00
19292;DHT22;9779;51.756;7.450;2023-06-10T02:39:41;19.50;99.90
19292;DHT22;9779;51.756;7.450;2023-06-10T02:42:06;19.50;99.90
19292;DHT22;9779;51.756;7.450;2023-06-10T02:44:32;19.50;1.00
19292;DHT22;9779;51.756;7.450;2023-06-10T02:46:58;19.40;1.00
19292;DHT22;9779;51.756;7.450;2023-06-10T02:49:23;19.30;99.90
19292;DHT22;9779;51.756;7.450;2023-06-10T02:51:50;19.30;90.50
19292;DHT22;9779;51.756;7.450;2023-06-10T02:54:22;19.30;99.90
19292;DHT22;9779;51.756;7.450;2023-06-10T02:56:48;19.30;99.90
19292;DHT22;9779;51.756;7.450;2023-06-10T02:59:14;19.20;99.90
19292;DHT22;9779;51.756;7.450;2023-06-10T03:01:40;19.20;99.90
19292;DHT22;9779;51.756;7.450;2023-06-10T03:04:06;19.20;99.90
19292;DHT22;9779;51.756;7.450;2023-06-10T03:06:32;19.20;99.90
19292;DHT22;9779;51.756;7.450;2023-06-10T03:09:00;19.10;99.90
19292;DHT22;9779;51.756;7.450;2023-06-10T03:11:25;19.10;1.00
19292;DHT22;9779;51.756;7.450;2023-06-10T03:13:51;19.10;1.00
19292;DHT22;9779;51.756;7.450;2023-06-10T03:16:19;19.00;1.00
19292;DHT22;9779;51.756;7.450;2023-06-10T03:18:45;19.00;1.00
19292;DHT22;9779;51.756;7.450;2023-06-10T03:21:11;19.00;16.10
19292;DHT22;9779;51.756;7.450;2023-06-10T03:23:36;18.90;1.00
19292;DHT22;9779;51.756;7.450;2023-06-10T03:26:03;18.90;1.00
19292;DHT22;9779;51.756;7.450;2023-06-10T03:28:30;18.80;1.00
19292;DHT22;9779;51.756;7.450;2023-06-10T03:30:56;18.80;1.00
19292;DHT22;9779;51.756;7.450;2023-06-10T03:33:21;18.80;1.00
19292;DHT22;9779;51.756;7.450;2023-06-10T03:35:47;18.80;1.00
19292;DHT22;9779;51.756;7.450;2023-06-10T03:38:13;18.70;1.00
19292;DHT22;9779;51.756;7.450;2023-06-10T03:40:39;18.70;1.00
19292;DHT22;9779;51.756;7.450;2023-06-10T03:43:04;18.70;1.00
19292;DHT22;9779;51.756;7.450;2023-06-10T03:45:30;18.60;99.90
19292;DHT22;9779;51.756;7.450;2023-06-10T03:47:56;18.70;1.00
19292;DHT22;9779;51.756;7.450;2023-06-10T03:50:21;18.60;59.60
19292;DHT22;9779;51.756;7.450;2023-06-10T03:52:48;18.60;1.00
19292;DHT22;9779;51.756;7.450;2023-06-10T03:55:17;18.60;99.90
19292;DHT22;9779;51.756;7.450;2023-06-10T03:57:43;18.60;99.90
19292;DHT22;9779;51.756;7.450;2023-06-10T04:00:09;18.60;1.00
19292;DHT22;9779;51.756;7.450;2023-06-10T04:02:37;18.60;99.90
19292;DHT22;9779;51.756;7.450;2023-06-10T04:05:03;18.50;1.00
19292;DHT22;9779;51.756;7.450;2023-06-10T04:07:29;18.50;99.90
19292;DHT22;9779;51.756;7.450;2023-06-10T04:09:56;18.50;1.00
19292;DHT22;9779;51.756;7.450;2023-06-10T04:12:21;18.50;1.00
19292;DHT22;9779;51.756;7.450;2023-06-10T04:14:47;18.50;1.00
19292;DHT22;9779;51.756;7.450;2023-06-10T04:17:12;18.50;1.00
19292;DHT22;9779;51.756;7.450;2023-06-10T04:19:38;18.50;1.00
19292;DHT22;9779;51.756;7.450;2023-06-10T04:22:04;18.50;1.00
19292;DHT22;9779;51.756;7.450;2023-06-10T04:24:30;18.50;1.00
19292;DHT22;9779;51.756;7.450;2023-06-10T04:26:56;18.50;1.00
19292;DHT22;9779;51.756;7.450;2023-06-10T04:29:21;18.40;1.00
19292;DHT22;9779;51.756;7.450;2023-06-10T04:31:47;18.40;1.00
19292;DHT22;9779;51.756;7.450;2023-06-10T04:34:12;18.50;96.90
19292;DHT22;9779;51.756;7.450;2023-06-10T04:36:38;18.40;1.00
19292;DHT22;9779;51.756;7.450;2023-06-10T04:39:04;18.40;1.00
19292;DHT22;9779;51.756;7.450;2023-06-10T04:41:31;18.40;1.00
19292;DHT22;9779;51.756;7.450;2023-06-10T04:43:56;18.40;14.00
19292;DHT22;9779;51.756;7.450;2023-06-10T04:46:23;18.40;99.90
19292;DHT22;9779;51.756;7.450;2023-06-10T04:48:50;18.40;99.90
19292;DHT22;9779;51.756;7.450;2023-06-10T04:51:15;18.40;99.90
19292;DHT22;9779;51.756;7.450;2023-06-10T04:53:42;18.40;99.90
19292;DHT22;9779;51.756;7.450;2023-06-10T04:56:07;18.40;1.00
19292;DHT22;9779;51.756;7.450;2023-06-10T04:58:33;18.40;1.00
19292;DHT22;9779;51.756;7.450;2023-06-10T05:00:59;18.40;1.00
19292;DHT22;9779;51.756;7.450;2023-06-10T05:03:25;18.40;1.00
19292;DHT22;9779;51.756;7.450;2023-06-10T05:05:51;18.40;1.00
19292;DHT22;9779;51.756;7.450;2023-06-10T05:08:16;18.40;1.00
19292;DHT22;9779;51.756;7.450;2023-06-10T05:10:42;18.50;1.00
19292;DHT22;9779;51.756;7.450;2023-06-10T05:13:08;18.50;99.90
19292;DHT22;9779;51.756;7.450;2023-06-10T05:15:33;18.50;83.20
19292;DHT22;9779;51.756;7.450;2023-06-10T05:17:59;18.50;99.90
19292;DHT22;9779;51.756;7.450;2023-06-10T05:20:25;18.60;12.20
19292;DHT22;9779;51.756;7.450;2023-06-10T05:22:51;18.60;99.90
19292;DHT22;9779;51.756;7.450;2023-06-10T05:25:16;18.60;99.90
19292;DHT22;9779;51.756;7.450;2023-06-10T05:27:42;18.60;99.90
19292;DHT22;9779;51.756;7.450;2023-06-10T05:30:09;18.60;4.30
19292;DHT22;9779;51.756;7.450;2023-06-10T05:32:35;18.60;1.00
19292;DHT22;9779;51.756;7.450;2023-06-10T05:35:01;18.70;99.90
19292;DHT22;9779;51.756;7.450;2023-06-10T05:37:27;18.70;99.90
19292;DHT22;9779;51.756;7.450;2023-06-10T05:39:52;18.70;99.90
19292;DHT22;9779;51.756;7.450;2023-06-10T05:42:18;18.80;99.90
19292;DHT22;9779;51.756;7.450;2023-06-10T05:44:44;18.80;99.90
19292;DHT22;9779;51.756;7.450;2023-06-10T05:47:09;18.80;1.00
19292;DHT22;9779;51.756;7.450;2023-06-10T05:49:35;18.80;1.00
19292;DHT22;9779;51.756;7.450;2023-06-10T05:52:00;18.80;99.90
19292;DHT22;9779;51.756;7.450;2023-06-10T05:54:26;18.90;99.90
19292;DHT22;9779;51.756;7.450;2023-06-10T05:56:52;18.90;1.00
19292;DHT22;9779;51.756;7.450;2023-06-10T05:59:17;19.00;99.90
19292;DHT22;9779;51.756;7.450;2023-06-10T06:01:43;19.10;1.00
19292;DHT22;9779;51.756;7.450;2023-06-10T06:04:09;19.10;1.00
19292;DHT22;9779;51.756;7.450;2023-06-10T06:06:38;19.10;1.00
19292;DHT22;9779;51.756;7.450;2023-06-10T06:09:03;19.20;99.90
19292;DHT22;9779;51.756;7.450;2023-06-10T06:11:29;19.20;99.90
19292;DHT22;9779;51.756;7.450;2023-06-10T06:13:54;19.20;99.90
19292;DHT22;9779;51.756;7.450;2023-06-10T06:16:20;19.30;99.90
19292;DHT22;9779;51.756;7.450;2023-06-10T06:18:45;19.30;1.00
19292;DHT22;9779;51.756;7.450;2023-06-10T06:21:11;19.40;99.90
19292;DHT22;9779;51.756;7.450;2023-06-10T06:23:36;19.40;1.00
19292;DHT22;9779;51.756;7.450;2023-06-10T06:26:02;19.50;1.00
19292;DHT22;9779;51.756;7.450;2023-06-10T06:28:27;19.50;99.90
19292;DHT22;9779;51.756;7.450;2023-06-10T06:30:57;19.50;99.90
19292;DHT22;9779;51.756;7.450;2023-06-10T06:33:22;19.60;1.00
19292;DHT22;9779;51.756;7.450;2023-06-10T06:35:48;19.60;1.00
19292;DHT22;9779;51.756;7.450;2023-06-10T06:38:13;19.70;99.90
19292;DHT22;9779;51.756;7.450;2023-06-10T06:40:39;19.70;99.90
19292;DHT22;9779;51.756;7.450;2023-06-10T06:43:04;19.80;99.90
19292;DHT22;9779;51.756;7.450;2023-06-10T06:45:30;19.80;99.90
19292;DHT22;9779;51.756;7.450;2023-06-10T06:47:56;19.80;1.00
19292;DHT22;9779;51.756;7.450;2023-06-10T06:50:21;19.90;1.00
19292;DHT22;9779;51.756;7.450;2023-06-10T06:52:47;20.00;1.00
19292;DHT22;9779;51.756;7.450;2023-06-10T06:55:12;20.00;1.00
19292;DHT22;9779;51.756;7.450;2023-06-10T06:57:38;20.10;99.90
19292;DHT22;9779;51.756;7.450;2023-06-10T07:00:04;20.10;1.00
19292;DHT22;9779;51.756;7.450;2023-06-10T07:02:30;20.20;1.00
19292;DHT22;9779;51.756;7.450;2023-06-10T07:04:57;20.30;16.50
19292;DHT22;9779;51.756;7.450;2023-06-10T07:07:24;20.30;99.90
19292;DHT22;9779;51.756;7.450;2023-06-10T07:09:50;20.40;1.00
19292;DHT22;9779;51.756;7.450;2023-06-10T07:12:15;20.40;75.60
19292;DHT22;9779;51.756;7.450;2023-06-10T07:14:41;20.50;1.00
19292;DHT22;9779;51.756;7.450;2023-06-10T07:17:07;20.60;1.00
19292;DHT22;9779;51.756;7.450;2023-06-10T07:19:32;20.70;99.90
19292;DHT22;9779;51.756;7.450;2023-06-10T07:21:58;20.80;1.00
19292;DHT22;9779;51.756;7.450;2023-06-10T07:24:23;20.90;99.90
19292;DHT22;9779;51.756;7.450;2023-06-10T07:26:49;21.00;1.00
19292;DHT22;9779;51.756;7.450;2023-06-10T07:29:15;21.10;1.00
19292;DHT22;9779;51.756;7.450;2023-06-10T07:31:41;21.10;1.00
19292;DHT22;9779;51.756;7.450;2023-06-10T07:34:06;21.20;1.00
19292;DHT22;9779;51.756;7.450;2023-06-10T07:36:32;21.30;1.00
19292;DHT22;9779;51.756;7.450;2023-06-10T07:38:57;21.40;99.90
19292;DHT22;9779;51.756;7.450;2023-06-10T07:41:24;21.50;1.00
19292;DHT22;9779;51.756;7.450;2023-06-10T07:43:53;21.60;1.00
19292;DHT22;9779;51.756;7.450;2023-06-10T07:46:23;21.70;1.00
19292;DHT22;9779;51.756;7.450;2023-06-10T07:48:49;21.80;1.00
19292;DHT22;9779;51.756;7.450;2023-06-10T07:51:16;21.90;1.00
19292;DHT22;9779;51.756;7.450;2023-06-10T07:53:42;22.00;1.00
19292;DHT22;9779;51.756;7.450;2023-06-10T07:56:07;22.10;90.70
19292;DHT22;9779;51.756;7.450;2023-06-10T07:58:33;22.20;99.90
19292;DHT22;9779;51.756;7.450;2023-06-10T08:00:58;22.30;1.00
19292;DHT22;9779;51.756;7.450;2023-06-10T08:03:24;22.40;1.00
19292;DHT22;9779;51.756;7.450;2023-06-10T08:05:49;22.60;1.00
19292;DHT22;9779;51.756;7.450;2023-06-10T08:08:15;22.70;1.00
19292;DHT22;9779;51.756;7.450;2023-06-10T08:10:40;22.60;99.90
19292;DHT22;9779;51.756;7.450;2023-06-10T08:13:08;22.80;99.90
19292;DHT22;9779;51.756;7.450;2023-06-10T08:15:33;22.80;99.90
19292;DHT22;9779;51.756;7.450;2023-06-10T08:17:59;22.90;99.90
19292;DHT22;9779;51.756;7.450;2023-06-10T08:20:24;23.10;99.90
19292;DHT22;9779;51.756;7.450;2023-06-10T08:22:50;23.20;99.90
19292;DHT22;9779;51.756;7.450;2023-06-10T08:25:15;23.40;99.90
19292;DHT22;9779;51.756;7.450;2023-06-10T08:27:41;23.50;1.00
19292;DHT22;9779;51.756;7.450;2023-06-10T08:30:07;23.60;1.00
19292;DHT22;9779;51.756;7.450;2023-06-10T08:32:33;23.80;1.00
19292;DHT22;9779;51.756;7.450;2023-06-10T08:34:59;23.80;1.00
19292;DHT22;9779;51.756;7.450;2023-06-10T08:37:24;23.90;1.00
19292;DHT22;9779;51.756;7.450;2023-06-10T08:39:50;24.00;1.00
19292;DHT22;9779;51.756;7.450;2023-06-10T08:42:28;24.10;1.00
19292;DHT22;9779;51.756;7.450;2023-06-10T08:44:55;24.40;1.00
19292;DHT22;9779;51.756;7.450;2023-06-10T08:47:23;24.50;1.00
19292;DHT22;9779;51.756;7.450;2023-06-10T08:49:51;24.50;1.00
19292;DHT22;9779;51.756;7.450;2023-06-10T08:52:20;24.60;1.00
19292;DHT22;9779;51.756;7.450;2023-06-10T08:54:59;24.70;1.00
19292;DHT22;9779;51.756;7.450;2023-06-10T08:57:26;25.00;99.90
19292;DHT22;9779;51.756;7.450;2023-06-10T08:59:53;25.00;99.90
19292;DHT22;9779;51.756;7.450;2023-06-10T09:02:20;25.20;99.90
19292;DHT22;9779;51.756;7.450;2023-06-10T09:04:47;25.40;99.90
19292;DHT22;9779;51.756;7.450;2023-06-10T09:07:14;25.40;99.90
19292;DHT22;9779;51.756;7.450;2023-06-10T09:09:42;25.50;99.90
19292;DHT22;9779;51.756;7.450;2023-06-10T09:12:08;25.60;99.90
19292;DHT22;9779;51.756;7.450;2023-06-10T09:14:34;25.70;99.90
19292;DHT22;9779;51.756;7.450;2023-06-10T09:16:59;25.90;99.90
19292;DHT22;9779;51.756;7.450;2023-06-10T09:19:28;26.10;99.90
19292;DHT22;9779;51.756;7.450;2023-06-10T09:21:54;26.20;59.90
19292;DHT22;9779;51.756;7.450;2023-06-10T09:24:22;26.20;28.20
19292;DHT22;9779;51.756;7.450;2023-06-10T09:26:47;26.40;6.70
19292;DHT22;9779;51.756;7.450;2023-06-10T09:29:13;26.50;1.00
19292;DHT22;9779;51.756;7.450;2023-06-10T09:31:39;26.60;1.00
19292;DHT22;9779;51.756;7.450;2023-06-10T09:34:08;26.70;1.00
19292;DHT22;9779;51.756;7.450;2023-06-10T09:36:35;26.90;1.00
19292;DHT22;9779;51.756;7.450;2023-06-10T09:39:01;27.10;1.00
19292;DHT22;9779;51.756;7.450;2023-06-10T09:41:33;27.20;1.00
19292;DHT22;9779;51.756;7.450;2023-06-10T09:44:00;27.30;1.00
19292;DHT22;9779;51.756;7.450;2023-06-10T09:46:31;27.40;1.00
19292;DHT22;9779;51.756;7.450;2023-06-10T09:48:59;27.50;1.00
19292;DHT22;9779;51.756;7.450;2023-06-10T09:51:25;27.60;1.00
19292;DHT22;9779;51.756;7.450;2023-06-10T09:53:51;27.80;1.00
19292;DHT22;9779;51.756;7.450;2023-06-10T09:56:17;27.80;1.00
19292;DHT22;9779;51.756;7.450;2023-06-10T09:58:44;27.90;1.00
19292;DHT22;9779;51.756;7.450;2023-06-10T10:01:13;28.00;1.00
19292;DHT22;9779;51.756;7.450;2023-06-10T10:03:51;28.00;1.00
19292;DHT22;9779;51.756;7.450;2023-06-10T10:06:18;28.10;1.00
19292;DHT22;9779;51.756;7.450;2023-06-10T10:08:45;28.30;1.00
19292;DHT22;9779;51.756;7.450;2023-06-10T10:11:11;28.40;1.00
19292;DHT22;9779;51.756;7.450;2023-06-10T10:13:38;28.40;1.00
19292;DHT22;9779;51.756;7.450;2023-06-10T10:16:09;28.70;1.00
19292;DHT22;9779;51.756;7.450;2023-06-10T10:18:43;28.80;1.00
19292;DHT22;9779;51.756;7.450;2023-06-10T10:21:16;28.80;1.00
19292;DHT22;9779;51.756;7.450;2023-06-10T10:26:15;29.20;1.00
19292;DHT22;9779;51.756;7.450;2023-06-10T10:28:51;29.30;1.00
19292;DHT22;9779;51.756;7.450;2023-06-10T10:31:19;29.20;1.00
19292;DHT22;9779;51.756;7.450;2023-06-10T10:33:54;29.30;1.00
19292;DHT22;9779;51.756;7.450;2023-06-10T10:36:21;29.60;1.00
19292;DHT22;9779;51.756;7.450;2023-06-10T10:38:48;29.80;1.00
19292;DHT22;9779;51.756;7.450;2023-06-10T10:41:15;29.90;1.00
19292;DHT22;9779;51.756;7.450;2023-06-10T10:43:41;30.10;1.00
19292;DHT22;9779;51.756;7.450;2023-06-10T10:46:12;30.20;1.00
19292;DHT22;9779;51.756;7.450;2023-06-10T10:48:38;30.40;1.00
19292;DHT22;9779;51.756;7.450;2023-06-10T10:51:05;30.50;1.00
19292;DHT22;9779;51.756;7.450;2023-06-10T10:53:30;30.70;1.00
19292;DHT22;9779;51.756;7.450;2023-06-10T10:56:15;30.90;1.00
19292;DHT22;9779;51.756;7.450;2023-06-10T10:58:43;31.10;99.90
19292;DHT22;9779;51.756;7.450;2023-06-10T11:01:40;31.10;99.90
19292;DHT22;9779;51.756;7.450;2023-06-10T11:04:10;31.20;99.90
19292;DHT22;9779;51.756;7.450;2023-06-10T11:06:35;31.40;99.90
19292;DHT22;9779;51.756;7.450;2023-06-10T11:09:27;31.60;99.90
19292;DHT22;9779;51.756;7.450;2023-06-10T11:11:56;31.70;99.90
19292;DHT22;9779;51.756;7.450;2023-06-10T11:14:27;31.70;99.90
19292;DHT22;9779;51.756;7.450;2023-06-10T11:16:57;31.70;99.90
19292;DHT22;9779;51.756;7.450;2023-06-10T11:19:35;31.80;99.90
19292;DHT22;9779;51.756;7.450;2023-06-10T11:22:06;32.10;99.90
19292;DHT22;9779;51.756;7.450;2023-06-10T11:24:32;32.30;99.90
19292;DHT22;9779;51.756;7.450;2023-06-10T11:32:34;32.70;99.90
19292;DHT22;9779;51.756;7.450;2023-06-10T11:35:03;32.70;99.90
19292;DHT22;9779;51.756;7.450;2023-06-10T11:37:29;32.80;99.90
19292;DHT22;9779;51.756;7.450;2023-06-10T11:39:56;32.80;99.90
19292;DHT22;9779;51.756;7.450;2023-06-10T11:42:24;32.90;99.90
19292;DHT22;9779;51.756;7.450;2023-06-10T11:44:51;33.10;99.90
19292;DHT22;9779;51.756;7.450;2023-06-10T11:47:18;33.30;99.90
19292;DHT22;9779;51.756;7.450;2023-06-10T11:49:44;33.30;99.90
19292;DHT22;9779;51.756;7.450;2023-06-10T11:52:10;33.30;99.90
19292;DHT22;9779;51.756;7.450;2023-06-10T11:54:37;33.40;99.90
19292;DHT22;9779;51.756;7.450;2023-06-10T11:57:03;33.40;99.90
19292;DHT22;9779;51.756;7.450;2023-06-10T11:59:29;33.60;99.90
19292;DHT22;9779;51.756;7.450;2023-06-10T12:01:56;33.80;99.90
19292;DHT22;9779;51.756;7.450;2023-06-10T12:04:21;34.10;99.90
19292;DHT22;9779;51.756;7.450;2023-06-10T12:06:48;33.90;99.90
19292;DHT22;9779;51.756;7.450;2023-06-10T12:11:52;34.30;99.90
19292;DHT22;9779;51.756;7.450;2023-06-10T12:14:54;34.40;99.90
19292;DHT22;9779;51.756;7.450;2023-06-10T12:17:42;34.60;99.90
19292;DHT22;9779;51.756;7.450;2023-06-10T12:20:23;34.80;99.90
19292;DHT22;9779;51.756;7.450;2023-06-10T12:22:49;34.90;99.90
19292;DHT22;9779;51.756;7.450;2023-06-10T12:25:15;34.80;99.90
19292;DHT22;9779;51.756;7.450;2023-06-10T12:27:50;34.80;99.90
19292;DHT22;9779;51.756;7.450;2023-06-10T12:30:19;34.80;99.90
19292;DHT22;9779;51.756;7.450;2023-06-10T12:32:46;35.10;99.90
19292;DHT22;9779;51.756;7.450;2023-06-10T12:35:13;35.30;1.00
19292;DHT22;9779;51.756;7.450;2023-06-10T12:37:41;35.40;99.90
19292;DHT22;9779;51.756;7.450;2023-06-10T12:40:07;35.40;99.90
19292;DHT22;9779;51.756;7.450;2023-06-10T12:42:37;35.50;99.90
19292;DHT22;9779;51.756;7.450;2023-06-10T12:45:03;35.40;99.90
19292;DHT22;9779;51.756;7.450;2023-06-10T12:47:34;35.40;99.90
19292;DHT22;9779;51.756;7.450;2023-06-10T12:50:05;35.60;99.90
19292;DHT22;9779;51.756;7.450;2023-06-10T12:52:31;35.70;99.90
19292;DHT22;9779;51.756;7.450;2023-06-10T12:54:58;35.60;99.90
19292;DHT22;9779;51.756;7.450;2023-06-10T12:57:24;35.60;99.90
19292;DHT22;9779;51.756;7.450;2023-06-10T12:59:50;35.70;99.90
19292;DHT22;9779;51.756;7.450;2023-06-10T13:02:21;35.80;99.90
19292;DHT22;9779;51.756;7.450;2023-06-10T13:04:49;35.70;99.90
19292;DHT22;9779;51.756;7.450;2023-06-10T13:07:15;35.70;99.90
19292;DHT22;9779;51.756;7.450;2023-06-10T13:09:41;35.70;99.90
19292;DHT22;9779;51.756;7.450;2023-06-10T13:12:07;36.00;99.90
19292;DHT22;9779;51.756;7.450;2023-06-10T13:14:33;35.90;99.90
19292;DHT22;9779;51.756;7.450;2023-06-10T13:16:59;35.90;99.90
19292;DHT22;9779;51.756;7.450;2023-06-10T13:19:24;36.10;99.90
19292;DHT22;9779;51.756;7.450;2023-06-10T13:21:51;35.80;99.90
19292;DHT22;9779;51.756;7.450;2023-06-10T13:24:17;35.90;99.90
19292;DHT22;9779;51.756;7.450;2023-06-10T13:26:42;36.00;99.90
19292;DHT22;9779;51.756;7.450;2023-06-10T13:29:08;36.10;99.90
19292;DHT22;9779;51.756;7.450;2023-06-10T13:31:39;36.00;99.90
19292;DHT22;9779;51.756;7.450;2023-06-10T13:34:05;36.10;99.90
19292;DHT22;9779;51.756;7.450;2023-06-10T13:38:57;36.40;99.90
19292;DHT22;9779;51.756;7.450;2023-06-10T13:41:22;36.10;99.90
19292;DHT22;9779;51.756;7.450;2023-06-10T13:43:48;36.00;99.90
19292;DHT22;9779;51.756;7.450;2023-06-10T13:46:13;36.20;99.90
19292;DHT22;9779;51.756;7.450;2023-06-10T13:48:39;36.30;99.90
19292;DHT22;9779;51.756;7.450;2023-06-10T13:51:05;36.20;99.90
19292;DHT22;9779;51.756;7.450;2023-06-10T13:53:31;36.30;99.90
19292;DHT22;9779;51.756;7.450;2023-06-10T13:55:57;36.50;99.90
19292;DHT22;9779;51.756;7.450;2023-06-10T13:58:22;36.60;99.90
19292;DHT22;9779;51.756;7.450;2023-06-10T14:00:48;36.70;99.90
19292;DHT22;9779;51.756;7.450;2023-06-10T14:03:13;37.10;99.90
19292;DHT22;9779;51.756;7.450;2023-06-10T14:05:39;36.60;99.90
19292;DHT22;9779;51.756;7.450;2023-06-10T14:08:05;36.80;99.90
19292;DHT22;9779;51.756;7.450;2023-06-10T14:10:30;36.60;1.00
19292;DHT22;9779;51.756;7.450;2023-06-10T14:12:56;37.00;1.00
19292;DHT22;9779;51.756;7.450;2023-06-10T14:20:21;37.10;99.90
19292;DHT22;9779;51.756;7.450;2023-06-10T14:22:46;36.80;99.90
19292;DHT22;9779;51.756;7.450;2023-06-10T14:25:12;37.00;99.90
19292;DHT22;9779;51.756;7.450;2023-06-10T14:27:37;36.80;98.10
19292;DHT22;9779;51.756;7.450;2023-06-10T14:30:03;37.10;97.90
19292;DHT22;9779;51.756;7.450;2023-06-10T14:32:29;37.10;99.90
19292;DHT22;9779;51.756;7.450;2023-06-10T14:34:54;37.10;99.90
19292;DHT22;9779;51.756;7.450;2023-06-10T14:37:20;37.10;99.90
19292;DHT22;9779;51.756;7.450;2023-06-10T14:39:45;37.00;99.90
19292;DHT22;9779;51.756;7.450;2023-06-10T14:42:11;37.00;99.90
19292;DHT22;9779;51.756;7.450;2023-06-10T14:44:37;37.00;99.90
19292;DHT22;9779;51.756;7.450;2023-06-10T14:47:02;36.90;99.90
19292;DHT22;9779;51.756;7.450;2023-06-10T14:49:28;36.80;99.90
19292;DHT22;9779;51.756;7.450;2023-06-10T14:51:53;36.90;99.90
19292;DHT22;9779;51.756;7.450;2023-06-10T14:54:19;36.90;99.90
19292;DHT22;9779;51.756;7.450;2023-06-10T14:56:44;36.90;99.90
19292;DHT22;9779;51.756;7.450;2023-06-10T14:59:10;37.00;99.90
19292;DHT22;9779;51.756;7.450;2023-06-10T15:01:35;37.00;99.90
19292;DHT22;9779;51.756;7.450;2023-06-10T15:04:01;37.00;99.90
19292;DHT22;9779;51.756;7.450;2023-06-10T15:06:26;37.10;99.90
19292;DHT22;9779;51.756;7.450;2023-06-10T15:08:53;37.10;99.90
19292;DHT22;9779;51.756;7.450;2023-06-10T15:11:18;37.00;99.90
19292;DHT22;9779;51.756;7.450;2023-06-10T15:13:44;36.90;99.90
19292;DHT22;9779;51.756;7.450;2023-06-10T15:16:09;37.00;99.90
19292;DHT22;9779;51.756;7.450;2023-06-10T15:18:35;36.90;99.90
19292;DHT22;9779;51.756;7.450;2023-06-10T15:21:00;36.90;99.90
19292;DHT22;9779;51.756;7.450;2023-06-10T15:23:26;36.90;99.90
19292;DHT22;9779;51.756;7.450;2023-06-10T15:25:52;36.90;99.90
19292;DHT22;9779;51.756;7.450;2023-06-10T15:28:17;36.90;99.90
19292;DHT22;9779;51.756;7.450;2023-06-10T15:30:43;37.10;99.90
19292;DHT22;9779;51.756;7.450;2023-06-10T15:33:08;37.00;99.90
19292;DHT22;9779;51.756;7.450;2023-06-10T15:35:34;37.00;99.90
19292;DHT22;9779;51.756;7.450;2023-06-10T15:37:59;37.00;99.90
19292;DHT22;9779;51.756;7.450;2023-06-10T15:40:25;36.90;99.90
19292;DHT22;9779;51.756;7.450;2023-06-10T15:42:51;36.90;99.90
19292;DHT22;9779;51.756;7.450;2023-06-10T15:45:17;36.80;99.90
19292;DHT22;9779;51.756;7.450;2023-06-10T15:47:42;36.70;99.90
19292;DHT22;9779;51.756;7.450;2023-06-10T15:50:08;36.70;99.90
19292;DHT22;9779;51.756;7.450;2023-06-10T15:52:34;36.70;99.90
19292;DHT22;9779;51.756;7.450;2023-06-10T15:55:00;36.60;99.90
19292;DHT22;9779;51.756;7.450;2023-06-10T15:57:26;36.60;99.90
19292;DHT22;9779;51.756;7.450;2023-06-10T15:59:52;36.60;99.90
19292;DHT22;9779;51.756;7.450;2023-06-10T16:02:18;36.60;99.90
19292;DHT22;9779;51.756;7.450;2023-06-10T16:04:43;36.60;99.90
19292;DHT22;9779;51.756;7.450;2023-06-10T16:07:09;36.60;99.90
19292;DHT22;9779;51.756;7.450;2023-06-10T16:09:34;36.50;99.90
19292;DHT22;9779;51.756;7.450;2023-06-10T16:12:00;36.40;99.90